Time;durP1;ratioP1;P1;durP2;ratioP2;P2;SDS_P1;SDS_P2;PMS_P1;PMS_P2;Temp;Humidity;BMP_temperature;BMP_pressure;BME280_temperature;BME280_humidity;BME280_pressure;Samples;Min_cycle;Max_cycle;Signal;HPM_P1;HPM_P2
2020/05/07 00:00:29;;;;;;;5.3;4.6;;;;;;;8.4;73.4375;965.9019;;;;
2020/05/07 00:02:56;;;;;;;6.3;4.2;;;;;;;8.31;73;965.9201;;;;
2020/05/07 00:05:21;;;;;;;7.4;4.8;;;;;;;8.28;73.07324;965.8586;;;;
2020/05/07 00:07:47;;;;;;;5.6;4.4;;;;;;;8.29;73.93359;965.8876;;;;
2020/05/07 00:10:12;;;;;;;6;4.4;;;;;;;8.21;74.33301;965.9495;;;;
2020/05/07 00:12:39;;;;;;;5.7;4.2;;;;;;;8.15;74.13867;965.9009;;;;
2020/05/07 00:15:04;;;;;;;6.4;4.4;;;;;;;8.17;74.43945;965.8692;;;;
2020/05/07 00:17:31;;;;;;;5.5;4.3;;;;;;;8.14;74.17188;965.8755;;;;
2020/05/07 00:19:56;;;;;;;5.8;4.7;;;;;;;8.23;74.0498;965.9253;;;;
2020/05/07 00:22:21;;;;;;;5.8;4.3;;;;;;;8.26;75.08594;965.8639;;;;
2020/05/07 00:24:46;;;;;;;5.6;4.4;;;;;;;8.2;75.45117;965.9152;;;;
2020/05/07 00:27:12;;;;;;;8.5;4.8;;;;;;;8.13;74.35352;965.9138;;;;
2020/05/07 00:29:38;;;;;;;6.1;4.5;;;;;;;8.17;75.31152;965.8102;;;;
2020/05/07 00:32:04;;;;;;;4.9;4.3;;;;;;;8.1;76.43164;965.8576;;;;
2020/05/07 00:34:29;;;;;;;5.5;4.4;;;;;;;8.2;75.38281;965.8931;;;;
2020/05/07 00:36:55;;;;;;;8.3;4.4;;;;;;;8.15;74.61816;965.8293;;;;
2020/05/07 00:39:24;;;;;;;5.8;4.3;;;;;;;8.1;75.8252;965.85;;;;
2020/05/07 00:41:49;;;;;;;6.9;5;;;;;;;8.12;76.10156;965.8194;;;;
2020/05/07 00:44:14;;;;;;;6.2;4.2;;;;;;;8.12;75.42773;965.8173;;;;
2020/05/07 00:46:39;;;;;;;6.4;4.2;;;;;;;8.2;75.09863;965.8024;;;;
2020/05/07 00:49:04;;;;;;;4.9;4.2;;;;;;;8.11;74.91113;965.8395;;;;
2020/05/07 00:51:29;;;;;;;5.2;4.1;;;;;;;8.14;75.24707;965.7823;;;;
2020/05/07 00:53:55;;;;;;;5.5;4.4;;;;;;;8.03;74.38086;965.8158;;;;
2020/05/07 00:56:20;;;;;;;5.7;4.1;;;;;;;8.04;74.16504;965.8024;;;;
2020/05/07 00:58:45;;;;;;;5.9;4.3;;;;;;;8.01;73.29004;965.7575;;;;
2020/05/07 01:01:11;;;;;;;6.4;4.6;;;;;;;8.08;72.8125;965.7442;;;;
2020/05/07 01:03:38;;;;;;;7.5;4.4;;;;;;;8.1;73.85547;965.8113;;;;
2020/05/07 01:06:03;;;;;;;8.3;4.7;;;;;;;8.09;74.32227;965.8312;;;;
2020/05/07 01:08:29;;;;;;;8.3;4.3;;;;;;;8.03;72.6084;965.8639;;;;
2020/05/07 01:10:54;;;;;;;6.5;4;;;;;;;8;71.58594;965.8262;;;;
2020/05/07 01:13:20;;;;;;;5.2;3.8;;;;;;;8.04;71.35156;965.7985;;;;
2020/05/07 01:15:45;;;;;;;6.2;4.1;;;;;;;8.07;71.62891;965.8303;;;;
2020/05/07 01:18:11;;;;;;;5.8;3.9;;;;;;;7.99;70.82813;965.8275;;;;
2020/05/07 01:20:36;;;;;;;4.9;3.7;;;;;;;7.96;73.16699;965.8318;;;;
2020/05/07 01:23:03;;;;;;;6;3.9;;;;;;;7.94;72.9707;965.8531;;;;
2020/05/07 01:25:29;;;;;;;5.9;4;;;;;;;7.79;73.13965;965.8292;;;;
2020/05/07 01:27:54;;;;;;;4.7;3.5;;;;;;;7.81;73.53027;965.7924;;;;
2020/05/07 01:30:20;;;;;;;6.6;3.8;;;;;;;7.83;73.41992;965.7747;;;;
2020/05/07 01:32:45;;;;;;;5.2;3.7;;;;;;;7.69;73.98047;965.8278;;;;
2020/05/07 01:35:11;;;;;;;5.9;3.7;;;;;;;7.78;74.97949;965.7714;;;;
2020/05/07 01:37:36;;;;;;;5.5;3.8;;;;;;;7.73;75.30078;965.7863;;;;
2020/05/07 01:40:01;;;;;;;4.5;3.8;;;;;;;7.77;74.04004;965.8307;;;;
2020/05/07 01:42:26;;;;;;;4.6;3.6;;;;;;;7.78;74.96777;965.8226;;;;
2020/05/07 01:44:52;;;;;;;5.8;3.5;;;;;;;7.7;74.26758;965.9036;;;;
2020/05/07 01:47:21;;;;;;;5.1;3.5;;;;;;;7.76;72.91797;965.9353;;;;
2020/05/07 01:49:46;;;;;;;4.5;3.6;;;;;;;7.75;74.54004;965.9058;;;;
2020/05/07 01:52:12;;;;;;;4.1;3.6;;;;;;;7.69;73.93457;965.9713;;;;
2020/05/07 01:54:47;;;;;;;6.7;3.9;;;;;;;7.62;73.83105;965.9839;;;;
2020/05/07 01:59:27;;;;;;;5.7;3.9;;;;;;;7.57;74.30176;966.0002;;;;
2020/05/07 02:01:52;;;;;;;4.6;3.8;;;;;;;7.54;74.66211;965.9775;;;;
2020/05/07 02:04:18;;;;;;;6.7;3.7;;;;;;;7.45;75.93848;966.0098;;;;
2020/05/07 02:06:43;;;;;;;4.7;3.8;;;;;;;7.35;76.6748;966.0117;;;;
2020/05/07 02:09:09;;;;;;;5.3;4.1;;;;;;;7.41;75.86133;966.0295;;;;
2020/05/07 02:11:34;;;;;;;5.4;3.7;;;;;;;7.48;74.80176;965.9321;;;;
2020/05/07 02:13:59;;;;;;;4.9;3.7;;;;;;;7.48;74.73145;965.9453;;;;
2020/05/07 02:16:25;;;;;;;4.6;3.6;;;;;;;7.43;75.75195;965.9405;;;;
2020/05/07 02:18:50;;;;;;;6.5;4;;;;;;;7.43;76.66602;965.9526;;;;
2020/05/07 02:21:17;;;;;;;5.4;3.8;;;;;;;7.3;76.29004;965.9934;;;;
2020/05/07 02:23:42;;;;;;;6;3.8;;;;;;;7.31;76.29102;966.045;;;;
2020/05/07 02:27:50;;;;;;;5.5;3.9;;;;;;;7.23;76.18359;966.1152;;;;
2020/05/07 02:30:15;;;;;;;6.1;3.8;;;;;;;7.35;75.8291;966.0927;;;;
2020/05/07 02:32:41;;;;;;;7.9;4.3;;;;;;;7.33;76.42969;966.1042;;;;
2020/05/07 02:35:06;;;;;;;7;4.1;;;;;;;7.27;76.66992;966.1101;;;;
2020/05/07 02:37:31;;;;;;;6.8;4;;;;;;;7.34;76.84473;966.0883;;;;
2020/05/07 02:39:56;;;;;;;15.3;4.4;;;;;;;7.33;77.10352;966.0669;;;;
2020/05/07 02:42:21;;;;;;;9.6;4.6;;;;;;;7.23;77.89746;966.1061;;;;
2020/05/07 02:44:46;;;;;;;6.5;4.1;;;;;;;7.17;78.78906;966.1044;;;;
2020/05/07 02:47:11;;;;;;;8.9;4.5;;;;;;;7.07;79.93359;966.0986;;;;
2020/05/07 02:49:36;;;;;;;7.1;4.4;;;;;;;7.13;80.85742;966.1036;;;;
2020/05/07 02:52:01;;;;;;;7.7;5;;;;;;;7.18;82.27246;966.0921;;;;
2020/05/07 02:54:26;;;;;;;6;4.7;;;;;;;7.16;83.02246;966.1049;;;;
2020/05/07 02:56:51;;;;;;;8.5;4.3;;;;;;;7;82.90137;966.0627;;;;
2020/05/07 02:59:16;;;;;;;6.6;4.7;;;;;;;7;83.6416;966.0678;;;;
2020/05/07 03:01:42;;;;;;;5.5;4.9;;;;;;;6.95;84.38574;966.1624;;;;
2020/05/07 03:04:07;;;;;;;5.6;4.2;;;;;;;6.9;84.12598;966.0928;;;;
2020/05/07 03:06:32;;;;;;;5.9;4.1;;;;;;;6.96;84.18457;966.1053;;;;
2020/05/07 03:08:57;;;;;;;6.5;4.4;;;;;;;6.7;84.77246;966.1191;;;;
2020/05/07 03:11:22;;;;;;;5.3;3.8;;;;;;;6.77;81.86426;966.1108;;;;
2020/05/07 03:13:47;;;;;;;5.4;3.9;;;;;;;6.65;81.96582;966.115;;;;
2020/05/07 03:16:13;;;;;;;4.3;3.5;;;;;;;6.7;82.46777;966.1752;;;;
2020/05/07 03:18:38;;;;;;;4.6;3.6;;;;;;;6.7;82.42188;966.1208;;;;
2020/05/07 03:21:03;;;;;;;5;3.7;;;;;;;6.59;82.28613;966.0833;;;;
2020/05/07 03:23:28;;;;;;;4.8;3.7;;;;;;;6.68;82.51953;966.1206;;;;
2020/05/07 03:25:53;;;;;;;5.6;3.8;;;;;;;6.8;82.8291;966.13;;;;
2020/05/07 03:28:20;;;;;;;6;4;;;;;;;6.71;83.65625;966.1122;;;;
2020/05/07 03:30:45;;;;;;;7.2;4.5;;;;;;;6.7;84.9873;966.0904;;;;
2020/05/07 03:33:11;;;;;;;6;4.3;;;;;;;6.63;85.38477;966.1208;;;;
2020/05/07 03:35:36;;;;;;;6.2;4.4;;;;;;;6.57;85.62305;966.0759;;;;
2020/05/07 03:38:02;;;;;;;7;4.7;;;;;;;6.3;86.24023;966.0198;;;;
2020/05/07 03:40:27;;;;;;;7.6;5;;;;;;;6.37;86.75781;966.0429;;;;
2020/05/07 03:42:54;;;;;;;5.8;4.2;;;;;;;6.45;86.79492;966.0502;;;;
2020/05/07 03:45:19;;;;;;;7.3;4.8;;;;;;;6.46;85.95508;966.0452;;;;
2020/05/07 03:47:44;;;;;;;5.8;4.4;;;;;;;6.51;85.73633;966.0439;;;;
2020/05/07 03:50:09;;;;;;;6.1;4.2;;;;;;;6.44;85.87012;966.0359;;;;
2020/05/07 03:52:34;;;;;;;6;4.4;;;;;;;6.32;85.39063;966.0104;;;;
2020/05/07 03:55:01;;;;;;;5.1;4.1;;;;;;;6.26;85.42383;965.9592;;;;
2020/05/07 03:57:26;;;;;;;6.4;4.5;;;;;;;6.14;85.95898;966.0151;;;;
2020/05/07 03:59:51;;;;;;;5.4;4.3;;;;;;;6.13;86.17188;966.011;;;;
2020/05/07 04:02:28;;;;;;;7.1;4.5;;;;;;;6.08;86.58398;965.9716;;;;
2020/05/07 04:04:53;;;;;;;6.7;4.3;;;;;;;6.09;86.66602;965.981;;;;
2020/05/07 04:07:18;;;;;;;6.4;4.7;;;;;;;6.03;86.80273;965.9146;;;;
2020/05/07 04:09:43;;;;;;;7;5.2;;;;;;;6.09;86.50488;965.9138;;;;
2020/05/07 04:12:08;;;;;;;6.6;5;;;;;;;6.4;84.88086;965.9029;;;;
2020/05/07 04:14:33;;;;;;;6.2;5.1;;;;;;;6.14;84.46484;965.9437;;;;
2020/05/07 04:16:58;;;;;;;7.7;5.5;;;;;;;6.1;84.9707;965.949;;;;
2020/05/07 04:19:23;;;;;;;7.1;5.3;;;;;;;6.09;84.29688;965.9698;;;;
2020/05/07 04:21:49;;;;;;;8.4;5.5;;;;;;;6.01;85.27148;965.9819;;;;
2020/05/07 04:24:14;;;;;;;8.7;5.6;;;;;;;6.01;84.89355;966.003;;;;
2020/05/07 04:26:39;;;;;;;7.5;5.8;;;;;;;6.07;84.20215;966.0892;;;;
2020/05/07 04:29:04;;;;;;;8.7;5.8;;;;;;;5.95;83.8584;966.0808;;;;
2020/05/07 04:31:29;;;;;;;6.6;5.4;;;;;;;6.16;83.49023;966.057;;;;
2020/05/07 04:33:54;;;;;;;6.9;5.6;;;;;;;6.07;84.56641;966.1196;;;;
2020/05/07 04:36:19;;;;;;;9.2;5.3;;;;;;;6.3;83.93848;966.1412;;;;
2020/05/07 04:38:44;;;;;;;6.8;5.7;;;;;;;6.24;80.18945;966.1627;;;;
2020/05/07 04:41:09;;;;;;;6.8;5.9;;;;;;;6.52;79.0459;966.1495;;;;
2020/05/07 04:43:35;;;;;;;7.8;6.6;;;;;;;6.4;78.00977;966.1478;;;;
2020/05/07 04:46:00;;;;;;;8.7;7;;;;;;;6.26;78.34766;966.1647;;;;
2020/05/07 04:48:41;;;;;;;8.9;7.1;;;;;;;6.22;77.79492;966.2278;;;;
2020/05/07 04:50:51;;;;;;;9.6;7.4;;;;;;;6.12;78.16406;966.2455;;;;
2020/05/07 04:53:16;;;;;;;9.4;7.4;;;;;;;6.17;77.86426;966.2836;;;;
2020/05/07 04:55:41;;;;;;;9.7;7.1;;;;;;;6.25;78.79297;966.3733;;;;
2020/05/07 04:58:06;;;;;;;9.7;6.9;;;;;;;6.42;77.56836;966.311;;;;
2020/05/07 05:00:31;;;;;;;8.2;7;;;;;;;6.5;76.86426;966.3594;;;;
2020/05/07 05:02:56;;;;;;;9.2;6.6;;;;;;;6.56;76.69141;966.3839;;;;
2020/05/07 05:05:23;;;;;;;8.9;7;;;;;;;6.59;77.36133;966.396;;;;
2020/05/07 05:07:48;;;;;;;7.5;6.7;;;;;;;6.61;77.02051;966.435;;;;
2020/05/07 05:10:13;;;;;;;7.5;6.8;;;;;;;6.63;77.37891;966.4706;;;;
2020/05/07 05:12:39;;;;;;;8.5;6.9;;;;;;;6.44;77.93652;966.4796;;;;
2020/05/07 05:15:04;;;;;;;8;6.5;;;;;;;6.5;77.69727;966.4672;;;;
2020/05/07 05:19:54;;;;;;;8.2;6.5;;;;;;;6.73;76.83789;966.4875;;;;
2020/05/07 05:22:20;;;;;;;8.2;6.6;;;;;;;6.71;78.01953;966.5293;;;;
2020/05/07 05:24:45;;;;;;;8.2;6.5;;;;;;;6.74;76.67969;966.5193;;;;
2020/05/07 05:27:11;;;;;;;6;5.4;;;;;;;6.89;77.13867;966.5422;;;;
2020/05/07 05:29:36;;;;;;;6.4;5;;;;;;;6.99;75.87988;966.5715;;;;
2020/05/07 05:32:03;;;;;;;7.5;5.6;;;;;;;6.98;74.54297;966.6216;;;;
2020/05/07 05:34:28;;;;;;;6.9;5.4;;;;;;;7.08;76.26172;966.6511;;;;
2020/05/07 05:36:54;;;;;;;6.5;4.9;;;;;;;7.15;74.29688;966.6283;;;;
2020/05/07 05:39:19;;;;;;;7.6;5.1;;;;;;;7.18;74.10938;966.6295;;;;
2020/05/07 05:41:46;;;;;;;7.2;5.1;;;;;;;7.37;73.95898;966.5922;;;;
2020/05/07 05:44:11;;;;;;;6.9;5.1;;;;;;;7.47;72.70801;966.6451;;;;
2020/05/07 05:46:37;;;;;;;5.9;4.5;;;;;;;7.55;73.15527;966.6661;;;;
2020/05/07 05:49:02;;;;;;;7.2;4.9;;;;;;;7.67;72.87793;966.6209;;;;
2020/05/07 05:51:29;;;;;;;5.1;4.4;;;;;;;7.69;73.55762;966.6423;;;;
2020/05/07 05:53:54;;;;;;;7.1;4.3;;;;;;;7.69;71.39648;966.6569;;;;
2020/05/07 05:56:20;;;;;;;6.8;4.7;;;;;;;7.73;72.07813;966.6917;;;;
2020/05/07 05:58:46;;;;;;;8.1;5.2;;;;;;;7.71;71.76367;966.6962;;;;
2020/05/07 06:01:11;;;;;;;5.1;4.5;;;;;;;7.84;71.6377;966.6841;;;;
2020/05/07 06:03:36;;;;;;;6.2;4.5;;;;;;;7.99;72.60059;966.6658;;;;
2020/05/07 06:06:03;;;;;;;7;4.7;;;;;;;8.13;70.96582;966.677;;;;
2020/05/07 06:08:28;;;;;;;7.7;4.5;;;;;;;8.21;72.22559;966.6192;;;;
2020/05/07 06:10:53;;;;;;;6.3;4.7;;;;;;;8.36;71.63281;966.6609;;;;
2020/05/07 06:13:18;;;;;;;6.9;4.4;;;;;;;8.33;69.69434;966.6746;;;;
2020/05/07 06:16:42;;;;;;;5.3;4;;;;;;;8.43;70.00684;966.6492;;;;
2020/05/07 06:18:08;;;;;;;6;4.1;;;;;;;8.62;69.21387;966.686;;;;
2020/05/07 06:20:33;;;;;;;7;4.1;;;;;;;8.8;67.98047;966.6245;;;;
2020/05/07 06:22:58;;;;;;;5.1;4;;;;;;;8.87;68.08398;966.6245;;;;
2020/05/07 06:25:23;;;;;;;6;4;;;;;;;8.84;68.19434;966.6746;;;;
2020/05/07 06:27:48;;;;;;;5.1;3.9;;;;;;;8.88;68.44043;966.6345;;;;
2020/05/07 06:30:13;;;;;;;6.7;4.4;;;;;;;9.01;68.57617;966.5834;;;;
2020/05/07 06:32:39;;;;;;;7.1;4.8;;;;;;;9.02;68.73926;966.5683;;;;
2020/05/07 06:35:04;;;;;;;7.6;4.3;;;;;;;9.25;67.42188;966.5718;;;;
2020/05/07 06:37:29;;;;;;;6.4;4.7;;;;;;;9.28;66.1875;966.5444;;;;
2020/05/07 06:39:55;;;;;;;6.1;4.4;;;;;;;9.42;67.86035;966.6156;;;;
2020/05/07 06:42:21;;;;;;;8.5;4.8;;;;;;;9.59;67.1875;966.6403;;;;
2020/05/07 06:44:47;;;;;;;7.3;4.4;;;;;;;9.76;66.35156;966.6501;;;;
2020/05/07 06:47:12;;;;;;;7.1;4.9;;;;;;;9.85;65.43555;966.6753;;;;
2020/05/07 06:49:38;;;;;;;6.7;4.6;;;;;;;9.91;66.28223;966.6594;;;;
2020/05/07 06:52:03;;;;;;;6.4;4.3;;;;;;;10.04;65.32617;966.6236;;;;
2020/05/07 06:54:29;;;;;;;6.4;4.4;;;;;;;10.15;64.3418;966.5988;;;;
2020/05/07 06:56:54;;;;;;;7.5;4.5;;;;;;;10.17;66.96777;966.563;;;;
2020/05/07 06:59:20;;;;;;;7.9;4.5;;;;;;;10.3;66.50391;966.5672;;;;
2020/05/07 07:01:46;;;;;;;5.3;4.4;;;;;;;10.45;65.37598;966.5342;;;;
2020/05/07 07:04:12;;;;;;;7.8;4.3;;;;;;;10.55;66.61035;966.5592;;;;
2020/05/07 07:06:37;;;;;;;9.8;4.1;;;;;;;10.53;62.31543;966.5634;;;;
2020/05/07 07:09:06;;;;;;;6.8;4.2;;;;;;;10.58;59.50488;966.5912;;;;
2020/05/07 07:11:31;;;;;;;6;4.1;;;;;;;10.74;60.10156;966.5396;;;;
2020/05/07 07:13:56;;;;;;;6.9;3.9;;;;;;;10.92;61.35938;966.5706;;;;
2020/05/07 07:16:21;;;;;;;7.3;4.2;;;;;;;10.97;59.81055;966.5798;;;;
2020/05/07 07:19:02;;;;;;;6.5;4.3;;;;;;;11.03;60.11816;966.5833;;;;
2020/05/07 07:21:27;;;;;;;5.6;4.1;;;;;;;11.23;59.91602;966.5677;;;;
2020/05/07 07:23:52;;;;;;;4.6;3.5;;;;;;;11.27;62.67578;966.5215;;;;
2020/05/07 07:26:17;;;;;;;5.8;3.8;;;;;;;11.31;57.94434;966.5236;;;;
2020/05/07 07:28:42;;;;;;;6.1;4.1;;;;;;;11.43;60.56738;966.5391;;;;
2020/05/07 07:31:07;;;;;;;5.3;4.2;;;;;;;11.47;60.68652;966.478;;;;
2020/05/07 07:33:32;;;;;;;6.3;3.7;;;;;;;11.59;59.13574;966.4813;;;;
2020/05/07 07:35:58;;;;;;;5;3.6;;;;;;;11.73;57.31836;966.48;;;;
2020/05/07 07:38:24;;;;;;;6.3;3.7;;;;;;;11.77;59.85156;966.4597;;;;
2020/05/07 07:40:49;;;;;;;5.7;3.4;;;;;;;11.73;58.16211;966.4286;;;;
2020/05/07 07:43:14;;;;;;;6.7;3.8;;;;;;;11.73;56.66211;966.3992;;;;
2020/05/07 07:45:41;;;;;;;3.9;2.9;;;;;;;11.72;57.8252;966.3912;;;;
2020/05/07 07:48:06;;;;;;;6.3;3.4;;;;;;;11.93;55.45215;966.3887;;;;
2020/05/07 07:50:32;;;;;;;4.6;3.3;;;;;;;12.14;55.30566;966.3719;;;;
2020/05/07 07:52:57;;;;;;;5.5;3.5;;;;;;;12.22;54.87793;966.3347;;;;
2020/05/07 07:55:22;;;;;;;5.4;3.6;;;;;;;12.2;54.30859;966.3569;;;;
2020/05/07 07:57:49;;;;;;;5.2;3.6;;;;;;;12.27;55.42773;966.3514;;;;
2020/05/07 08:00:14;;;;;;;4.9;3.1;;;;;;;12.31;56.50684;966.3703;;;;
2020/05/07 08:02:39;;;;;;;3.4;2.7;;;;;;;12.33;53.18066;966.3544;;;;
2020/05/07 08:05:04;;;;;;;4.7;2.8;;;;;;;12.39;51.92773;966.3649;;;;
2020/05/07 08:07:29;;;;;;;4.5;2.8;;;;;;;12.51;51.11035;966.3594;;;;
2020/05/07 08:09:54;;;;;;;4.4;2.6;;;;;;;12.69;51.17773;966.3119;;;;
2020/05/07 08:12:20;;;;;;;4;2.4;;;;;;;12.87;50.99023;966.2739;;;;
2020/05/07 08:14:45;;;;;;;2.8;2.2;;;;;;;12.91;49.72168;966.2542;;;;
2020/05/07 08:17:10;;;;;;;3.2;2.1;;;;;;;12.82;49.88477;966.2539;;;;
2020/05/07 08:19:36;;;;;;;3.1;2.3;;;;;;;12.87;49.72949;966.2225;;;;
2020/05/07 08:22:01;;;;;;;4.2;2.3;;;;;;;12.83;52.10742;966.1735;;;;
2020/05/07 08:24:27;;;;;;;3.7;2.6;;;;;;;12.89;50.66992;966.2173;;;;
2020/05/07 08:28:10;;;;;;;4.4;2.2;;;;;;;13;50.3584;966.1489;;;;
2020/05/07 08:30:34;;;;;;;3.6;2.4;;;;;;;13.1;51.7002;966.1008;;;;
2020/05/07 08:33:00;;;;;;;4.7;2.9;;;;;;;13.21;50.84473;966.09;;;;
2020/05/07 08:35:25;;;;;;;3.8;2.5;;;;;;;13.16;49.99512;966.0778;;;;
2020/05/07 08:37:50;;;;;;;3.7;2.5;;;;;;;13.18;48.89648;966.0903;;;;
2020/05/07 08:40:15;;;;;;;3.2;2.6;;;;;;;13.31;49.36133;966.1167;;;;
2020/05/07 08:42:40;;;;;;;3.9;2.4;;;;;;;13.24;51.23145;966.1094;;;;
2020/05/07 08:45:05;;;;;;;2.9;2;;;;;;;13.45;49.16992;966.1456;;;;
2020/05/07 08:47:30;;;;;;;3.2;2;;;;;;;13.56;50.10938;966.1838;;;;
2020/05/07 08:49:55;;;;;;;2.8;1.9;;;;;;;13.4;49.8125;966.0663;;;;
2020/05/07 08:52:21;;;;;;;2.7;1.5;;;;;;;13.5;46.61523;966.1082;;;;
2020/05/07 08:54:52;;;;;;;3.2;1.9;;;;;;;13.39;46.73047;966.0644;;;;
2020/05/07 08:57:11;;;;;;;2.1;1.6;;;;;;;13.67;47.0625;966.0793;;;;
2020/05/07 08:59:36;;;;;;;2.3;1.7;;;;;;;13.85;46.72168;966.0125;;;;
2020/05/07 09:02:02;;;;;;;4.1;1.7;;;;;;;13.85;45.78223;965.9986;;;;
2020/05/07 09:04:27;;;;;;;2.5;1.6;;;;;;;13.92;47.08887;965.9771;;;;
2020/05/07 09:06:52;;;;;;;2.7;1.8;;;;;;;13.97;46.6543;965.9689;;;;
2020/05/07 09:09:17;;;;;;;2.1;1.5;;;;;;;14.03;45.24414;965.9239;;;;
2020/05/07 09:11:42;;;;;;;2.8;1.6;;;;;;;14.13;46.91406;965.9286;;;;
2020/05/07 09:14:07;;;;;;;2.5;1.7;;;;;;;14.09;44.4502;965.8741;;;;
2020/05/07 09:18:58;;;;;;;1.7;1.3;;;;;;;13.83;45.47754;965.8223;;;;
2020/05/07 09:21:23;;;;;;;2.1;1.3;;;;;;;13.98;46.5957;965.7739;;;;
2020/05/07 09:23:48;;;;;;;2.1;1.4;;;;;;;14.01;45.86914;965.7826;;;;
2020/05/07 09:26:13;;;;;;;5.1;1.5;;;;;;;14.19;45.24902;965.7132;;;;
2020/05/07 09:28:38;;;;;;;2.8;1.5;;;;;;;14.22;46.23828;965.6948;;;;
2020/05/07 09:31:04;;;;;;;3.1;1.6;;;;;;;14.43;45.88965;965.6986;;;;
2020/05/07 09:33:29;;;;;;;2.4;1.7;;;;;;;14.33;46.29688;965.7166;;;;
2020/05/07 09:35:54;;;;;;;3.8;2;;;;;;;14.32;44.47363;965.6838;;;;
2020/05/07 09:40:53;;;;;;;2.6;1.7;;;;;;;14.55;44.55469;965.6989;;;;
2020/05/07 09:43:10;;;;;;;2.4;1.7;;;;;;;14.5;45.02539;965.6897;;;;
2020/05/07 09:45:39;;;;;;;2.7;1.8;;;;;;;14.47;45.2666;965.6703;;;;
2020/05/07 09:48:07;;;;;;;3.2;1.9;;;;;;;14.67;46.80957;965.6891;;;;
2020/05/07 09:50:30;;;;;;;4.1;2.3;;;;;;;14.88;47.19238;965.6761;;;;
2020/05/07 09:52:50;;;;;;;3.2;2.1;;;;;;;14.91;45.88281;965.6486;;;;
2020/05/07 09:55:15;;;;;;;3.6;2.1;;;;;;;14.83;46.15332;965.6442;;;;
2020/05/07 09:57:40;;;;;;;2.7;1.9;;;;;;;15.05;46.12891;965.6691;;;;
2020/05/07 10:00:06;;;;;;;3.2;2;;;;;;;15.15;46.34863;965.6727;;;;
2020/05/07 10:02:32;;;;;;;4.7;2.3;;;;;;;15.03;45.7207;965.7353;;;;
2020/05/07 10:04:57;;;;;;;2.4;2.1;;;;;;;15.02;45.44043;965.6697;;;;
2020/05/07 10:07:22;;;;;;;3.2;2.2;;;;;;;14.86;45.93555;965.6503;;;;
2020/05/07 10:09:47;;;;;;;4.4;2.1;;;;;;;14.97;45.88867;965.6829;;;;
2020/05/07 10:12:13;;;;;;;3.2;2;;;;;;;15.15;44.95313;965.7531;;;;
2020/05/07 10:14:38;;;;;;;2.1;1.7;;;;;;;15.24;44.58008;965.6909;;;;
2020/05/07 10:17:05;;;;;;;4;1.8;;;;;;;15.36;44.14844;965.7275;;;;
2020/05/07 10:19:30;;;;;;;2.4;1.9;;;;;;;15.52;42.83789;965.7274;;;;
2020/05/07 10:21:56;;;;;;;2.7;1.6;;;;;;;15.37;42.23047;965.7078;;;;
2020/05/07 10:24:21;;;;;;;2.6;1.8;;;;;;;15.4;40.19629;965.6941;;;;
2020/05/07 10:26:46;;;;;;;2.3;1.6;;;;;;;15.14;41.44043;965.634;;;;
2020/05/07 10:29:11;;;;;;;2.4;1.7;;;;;;;15.36;42.60059;965.6026;;;;
2020/05/07 10:31:36;;;;;;;2.1;1.6;;;;;;;15.41;43.31641;965.6024;;;;
2020/05/07 10:34:01;;;;;;;3.3;1.8;;;;;;;15.62;41.61328;965.5559;;;;
2020/05/07 10:36:34;;;;;;;2.2;1.5;;;;;;;16.11;39.23633;965.5396;;;;
2020/05/07 10:38:59;;;;;;;3.5;1.8;;;;;;;15.92;41.17676;965.5283;;;;
2020/05/07 10:41:24;;;;;;;2.2;1.6;;;;;;;15.92;41.08398;965.5168;;;;
2020/05/07 10:43:58;;;;;;;2;1.4;;;;;;;15.82;40.08398;965.6005;;;;
2020/05/07 10:46:33;;;;;;;2.7;1.8;;;;;;;15.98;41.77637;965.5156;;;;
2020/05/07 10:48:58;;;;;;;2.2;1.8;;;;;;;16.22;41.0293;965.5939;;;;
2020/05/07 10:51:36;;;;;;;3.4;2;;;;;;;16.28;40.46387;965.5433;;;;
2020/05/07 10:54:04;;;;;;;3.6;1.8;;;;;;;16.07;39.75684;965.5179;;;;
2020/05/07 10:56:29;;;;;;;2.5;1.5;;;;;;;16.15;38.37598;965.5101;;;;
2020/05/07 10:58:54;;;;;;;2.2;1.5;;;;;;;15.98;40.20313;965.4417;;;;
2020/05/07 11:01:19;;;;;;;3.3;1.6;;;;;;;16.07;40.15332;965.4448;;;;
2020/05/07 11:03:44;;;;;;;3.5;1.7;;;;;;;16.22;38.9541;965.384;;;;
2020/05/07 11:06:09;;;;;;;1.9;1.6;;;;;;;15.73;37.57129;965.3951;;;;
2020/05/07 11:08:35;;;;;;;2.5;1.4;;;;;;;16.25;42.61719;965.3621;;;;
2020/05/07 11:11:00;;;;;;;3.4;1.6;;;;;;;16.36;40.2373;965.3337;;;;
2020/05/07 11:13:25;;;;;;;2.2;1.5;;;;;;;16.36;40.36621;965.3354;;;;
2020/05/07 11:15:52;;;;;;;3.2;1.6;;;;;;;16.35;40.64453;965.2902;;;;
2020/05/07 11:18:17;;;;;;;2.3;1.4;;;;;;;16.48;40.36621;965.2344;;;;
2020/05/07 11:20:45;;;;;;;3.8;1.6;;;;;;;16.77;39.07324;965.2086;;;;
2020/05/07 11:23:53;;;;;;;3.1;1.4;;;;;;;16.75;39.94727;965.2073;;;;
2020/05/07 11:26:19;;;;;;;2.3;1.3;;;;;;;16.77;40.50879;965.1633;;;;
2020/05/07 11:28:44;;;;;;;2.6;1.4;;;;;;;16.78;38.47852;965.0974;;;;
2020/05/07 11:31:09;;;;;;;4.3;1.4;;;;;;;16.88;40.4375;965.0765;;;;
2020/05/07 11:33:34;;;;;;;3.2;1.6;;;;;;;16.66;38.47949;965.0928;;;;
2020/05/07 11:35:59;;;;;;;2.9;1.7;;;;;;;16.69;39.74316;965.0482;;;;
2020/05/07 11:38:24;;;;;;;3.2;1.5;;;;;;;17.32;40.77051;965.0571;;;;
2020/05/07 11:40:50;;;;;;;2.4;1.5;;;;;;;17.2;42.55957;965.0355;;;;
2020/05/07 11:43:15;;;;;;;3.2;1.5;;;;;;;17.33;39.71973;964.9822;;;;
2020/05/07 11:45:42;;;;;;;2.6;1.5;;;;;;;17.85;39.62598;965.0089;;;;
2020/05/07 11:48:07;;;;;;;1.9;1.4;;;;;;;17.55;37.78613;964.988;;;;
2020/05/07 11:50:32;;;;;;;2.7;1.5;;;;;;;17.54;38.27637;965.0236;;;;
2020/05/07 11:52:57;;;;;;;1.9;1.4;;;;;;;17.29;37.20215;965.0134;;;;
2020/05/07 11:55:24;;;;;;;2.3;1.6;;;;;;;17.28;39.72656;964.9984;;;;
2020/05/07 11:57:49;;;;;;;1.9;1.4;;;;;;;17.55;38.49902;965.0053;;;;
2020/05/07 12:00:14;;;;;;;3.3;1.6;;;;;;;17.6;37.91895;965.0112;;;;
2020/05/07 12:02:40;;;;;;;2.5;1.4;;;;;;;17.55;37.10742;965.0061;;;;
2020/05/07 12:05:05;;;;;;;1.5;1.4;;;;;;;17.64;37.04492;965.0119;;;;
2020/05/07 12:07:30;;;;;;;1.5;1.2;;;;;;;17.99;37.02734;964.9841;;;;
2020/05/07 12:09:55;;;;;;;2.1;1.5;;;;;;;18.11;38.2793;965.0103;;;;
2020/05/07 12:12:21;;;;;;;1.7;1.3;;;;;;;18.16;35.64844;964.9947;;;;
2020/05/07 12:14:46;;;;;;;2;1.2;;;;;;;18.08;34.88086;964.9361;;;;
2020/05/07 12:17:11;;;;;;;3.6;1.6;;;;;;;18.27;35.79785;964.92;;;;
2020/05/07 12:19:37;;;;;;;1.4;1.1;;;;;;;18.46;35.86035;964.9106;;;;
2020/05/07 12:22:02;;;;;;;3.5;1.4;;;;;;;18.42;36.43164;964.9063;;;;
2020/05/07 12:24:29;;;;;;;2.1;1.4;;;;;;;18.51;35.31348;964.8293;;;;
2020/05/07 12:26:56;;;;;;;2.4;1.6;;;;;;;18.07;35.18457;964.7999;;;;
2020/05/07 12:29:23;;;;;;;2.4;1.9;;;;;;;18.48;34.81836;964.8104;;;;
2020/05/07 12:31:48;;;;;;;2.2;1.4;;;;;;;18.74;34.96875;964.7817;;;;
2020/05/07 12:34:13;;;;;;;2.1;1.3;;;;;;;18.76;34.43066;964.7347;;;;
2020/05/07 12:36:38;;;;;;;2.2;1.7;;;;;;;19.07;34.03125;964.738;;;;
2020/05/07 12:39:04;;;;;;;2.7;1.7;;;;;;;18.89;33.76074;964.7266;;;;
2020/05/07 12:41:28;;;;;;;2.9;1.7;;;;;;;19.08;33.35254;964.684;;;;
2020/05/07 12:43:57;;;;;;;3.5;1.5;;;;;;;19.02;33.42969;964.7125;;;;
2020/05/07 12:46:22;;;;;;;2.5;1.7;;;;;;;19.1;33.36523;964.723;;;;
2020/05/07 12:48:47;;;;;;;1.9;1.6;;;;;;;18.97;32.44043;964.6451;;;;
2020/05/07 12:51:12;;;;;;;3.4;1.6;;;;;;;19.2;33.70117;964.6752;;;;
2020/05/07 12:53:37;;;;;;;4;1.8;;;;;;;19.46;33.11035;964.6584;;;;
2020/05/07 12:56:02;;;;;;;3.3;1.7;;;;;;;19.21;32.86914;964.6661;;;;
2020/05/07 12:58:27;;;;;;;2.6;1.5;;;;;;;19.2;32.07031;964.5948;;;;
2020/05/07 13:00:54;;;;;;;2.7;1.4;;;;;;;19.27;31.75781;964.5723;;;;
2020/05/07 13:05:47;;;;;;;3.6;1.6;;;;;;;19.92;32.35742;964.5125;;;;
2020/05/07 13:09:13;;;;;;;3.2;1.5;;;;;;;19.78;31.30078;964.5355;;;;
2020/05/07 13:12:24;;;;;;;3;1.7;;;;;;;19.96;33.05371;964.389;;;;
2020/05/07 13:14:50;;;;;;;3;2;;;;;;;20.29;33.50293;964.3118;;;;
2020/05/07 13:22:15;;;;;;;4.9;2.3;;;;;;;19.91;34.01465;964.247;;;;
2020/05/07 13:24:38;;;;;;;3.3;2.3;;;;;;;19.79;34.85254;964.2441;;;;
2020/05/07 13:27:03;;;;;;;3;2.5;;;;;;;19.9;34.2373;964.3019;;;;
2020/05/07 13:29:28;;;;;;;3.4;2.6;;;;;;;19.79;35.21582;964.3028;;;;
2020/05/07 13:31:53;;;;;;;4.6;3.3;;;;;;;19.75;34.27246;964.2668;;;;
2020/05/07 13:34:18;;;;;;;4.2;2.8;;;;;;;19.59;34.83594;964.3002;;;;
2020/05/07 13:36:43;;;;;;;4.2;3.3;;;;;;;19.6;34.41406;964.2852;;;;
2020/05/07 13:39:09;;;;;;;4;3.3;;;;;;;19.73;34.1543;964.1843;;;;
2020/05/07 13:41:37;;;;;;;5.1;3.2;;;;;;;19.58;34.72852;964.2094;;;;
2020/05/07 13:44:09;;;;;;;6.1;4.2;;;;;;;19.88;33.71875;964.1406;;;;
2020/05/07 13:46:46;;;;;;;5.7;4.1;;;;;;;20.13;34.83105;964.1116;;;;
2020/05/07 13:48:59;;;;;;;5.1;3.8;;;;;;;20.25;34.20508;964.0712;;;;
2020/05/07 13:51:24;;;;;;;6.1;4.2;;;;;;;20.23;32.80371;964.0798;;;;
2020/05/07 13:53:49;;;;;;;5.3;3.8;;;;;;;20.4;31.55762;964.0613;;;;
2020/05/07 13:56:19;;;;;;;5;4.4;;;;;;;20.36;32.8252;963.9764;;;;
2020/05/07 14:01:04;;;;;;;5.2;3.8;;;;;;;19.87;31.90723;963.9133;;;;
2020/05/07 14:03:29;;;;;;;6.2;4;;;;;;;20.01;31.82324;963.9481;;;;
2020/05/07 14:05:54;;;;;;;5.1;4;;;;;;;19.99;31.83398;963.9277;;;;
2020/05/07 14:08:19;;;;;;;4.7;4;;;;;;;20.13;31.98535;963.8956;;;;
2020/05/07 14:10:44;;;;;;;5.6;4.1;;;;;;;20.3;32.37402;963.847;;;;
2020/05/07 14:13:11;;;;;;;5.3;4.5;;;;;;;20.12;30.87891;963.8691;;;;
2020/05/07 14:15:35;;;;;;;5.7;4.5;;;;;;;20.66;33.87207;963.8644;;;;
2020/05/07 14:18:03;;;;;;;5.5;4.2;;;;;;;20.23;33.55664;963.8406;;;;
2020/05/07 14:20:29;;;;;;;6.8;4.5;;;;;;;20.49;33.01172;963.854;;;;
2020/05/07 14:22:54;;;;;;;6.3;4.2;;;;;;;20.91;32.00586;963.7879;;;;
2020/05/07 14:25:19;;;;;;;6.7;4.7;;;;;;;20.99;31.31641;963.7411;;;;
2020/05/07 14:27:44;;;;;;;7.3;5.3;;;;;;;21.01;31.25879;963.7434;;;;
2020/05/07 14:30:09;;;;;;;7.6;5;;;;;;;21.09;31.6416;963.7414;;;;
2020/05/07 14:32:34;;;;;;;9.7;7;;;;;;;20.93;32.08984;963.7502;;;;
2020/05/07 14:34:59;;;;;;;8.7;6.9;;;;;;;21.29;32.44629;963.7786;;;;
2020/05/07 14:37:24;;;;;;;9.3;7.3;;;;;;;20.71;33.45215;963.7477;;;;
2020/05/07 14:39:49;;;;;;;9.1;7;;;;;;;21.03;32.16797;963.6916;;;;
2020/05/07 14:42:14;;;;;;;9.3;7.1;;;;;;;21.29;32.49316;963.6852;;;;
2020/05/07 14:44:39;;;;;;;10.9;7.9;;;;;;;21.83;29.84082;963.7206;;;;